sensor_id;sensor_type;location;lat;lon;timestamp;pressure;altitude;pressure_sealevel;temperature
18713;BMP280;9485;49.386;8.674;2023-06-19T00:02:32;99816.69;;;24.22
18713;BMP280;9485;49.386;8.674;2023-06-19T00:07:52;99828.22;;;24.13
18713;BMP280;9485;49.386;8.674;2023-06-19T00:13:13;99823.16;;;24.04
18713;BMP280;9485;49.386;8.674;2023-06-19T00:18:35;99822.41;;;24.03
18713;BMP280;9485;49.386;8.674;2023-06-19T00:23:59;99831.22;;;24.05
18713;BMP280;9485;49.386;8.674;2023-06-19T00:29:19;99833.97;;;24.03
18713;BMP280;9485;49.386;8.674;2023-06-19T00:34:42;99841.09;;;24.02
18713;BMP280;9485;49.386;8.674;2023-06-19T00:40:04;99851.13;;;24.11
18713;BMP280;9485;49.386;8.674;2023-06-19T00:45:26;99832.31;;;24.19
18713;BMP280;9485;49.386;8.674;2023-06-19T00:50:49;99853.16;;;24.46
18713;BMP280;9485;49.386;8.674;2023-06-19T00:56:10;99875.50;;;24.74
18713;BMP280;9485;49.386;8.674;2023-06-19T01:01:31;99873.22;;;24.91
18713;BMP280;9485;49.386;8.674;2023-06-19T01:06:57;99887.06;;;25.02
18713;BMP280;9485;49.386;8.674;2023-06-19T01:12:31;99881.47;;;25.13
18713;BMP280;9485;49.386;8.674;2023-06-19T01:17:55;99881.13;;;25.19
18713;BMP280;9485;49.386;8.674;2023-06-19T01:23:18;99895.88;;;25.23
18713;BMP280;9485;49.386;8.674;2023-06-19T01:28:41;99896.03;;;25.25
18713;BMP280;9485;49.386;8.674;2023-06-19T01:34:06;99909.44;;;25.20
18713;BMP280;9485;49.386;8.674;2023-06-19T01:39:30;99937.88;;;25.24
18713;BMP280;9485;49.386;8.674;2023-06-19T01:44:53;99939.69;;;25.19
18713;BMP280;9485;49.386;8.674;2023-06-19T01:50:14;99940.31;;;25.18
18713;BMP280;9485;49.386;8.674;2023-06-19T01:55:36;99953.81;;;25.15
18713;BMP280;9485;49.386;8.674;2023-06-19T02:00:57;99957.31;;;25.14
18713;BMP280;9485;49.386;8.674;2023-06-19T02:06:18;99948.50;;;25.12
18713;BMP280;9485;49.386;8.674;2023-06-19T02:11:41;99960.50;;;25.08
18713;BMP280;9485;49.386;8.674;2023-06-19T02:17:02;99952.63;;;25.09
18713;BMP280;9485;49.386;8.674;2023-06-19T02:22:23;99965.50;;;25.08
18713;BMP280;9485;49.386;8.674;2023-06-19T02:27:45;99967.06;;;25.09
18713;BMP280;9485;49.386;8.674;2023-06-19T02:33:07;99965.34;;;25.06
18713;BMP280;9485;49.386;8.674;2023-06-19T02:38:28;99943.16;;;24.99
18713;BMP280;9485;49.386;8.674;2023-06-19T02:43:51;99953.63;;;24.95
18713;BMP280;9485;49.386;8.674;2023-06-19T02:49:11;99953.34;;;24.81
18713;BMP280;9485;49.386;8.674;2023-06-19T02:54:32;99972.19;;;24.73
18713;BMP280;9485;49.386;8.674;2023-06-19T02:59:54;100013.34;;;24.73
18713;BMP280;9485;49.386;8.674;2023-06-19T03:05:14;100033.84;;;24.68
18713;BMP280;9485;49.386;8.674;2023-06-19T03:10:35;100049.16;;;24.61
18713;BMP280;9485;49.386;8.674;2023-06-19T03:15:57;100069.94;;;24.50
18713;BMP280;9485;49.386;8.674;2023-06-19T03:21:18;100066.84;;;24.38
18713;BMP280;9485;49.386;8.674;2023-06-19T03:26:40;100063.91;;;24.29
18713;BMP280;9485;49.386;8.674;2023-06-19T03:32:03;100064.78;;;24.22
18713;BMP280;9485;49.386;8.674;2023-06-19T03:37:26;100063.03;;;24.10
18713;BMP280;9485;49.386;8.674;2023-06-19T03:42:47;100078.81;;;24.09
18713;BMP280;9485;49.386;8.674;2023-06-19T03:48:10;100086.88;;;24.10
18713;BMP280;9485;49.386;8.674;2023-06-19T03:53:31;100087.59;;;24.01
18713;BMP280;9485;49.386;8.674;2023-06-19T03:58:52;100089.38;;;23.97
18713;BMP280;9485;49.386;8.674;2023-06-19T04:04:14;100088.44;;;23.94
18713;BMP280;9485;49.386;8.674;2023-06-19T04:09:36;100098.44;;;23.93
18713;BMP280;9485;49.386;8.674;2023-06-19T04:14:58;100109.25;;;23.93
18713;BMP280;9485;49.386;8.674;2023-06-19T04:20:20;100094.91;;;23.85
18713;BMP280;9485;49.386;8.674;2023-06-19T04:25:41;100106.13;;;23.81
18713;BMP280;9485;49.386;8.674;2023-06-19T04:31:02;100107.47;;;23.80
18713;BMP280;9485;49.386;8.674;2023-06-19T04:36:24;100117.38;;;23.87
18713;BMP280;9485;49.386;8.674;2023-06-19T04:41:45;100122.19;;;23.84
18713;BMP280;9485;49.386;8.674;2023-06-19T04:47:06;100111.28;;;23.83
18713;BMP280;9485;49.386;8.674;2023-06-19T04:52:29;100108.56;;;23.85
18713;BMP280;9485;49.386;8.674;2023-06-19T04:57:52;100119.50;;;23.86
18713;BMP280;9485;49.386;8.674;2023-06-19T05:03:15;100123.00;;;23.85
18713;BMP280;9485;49.386;8.674;2023-06-19T05:08:38;100116.25;;;23.99
18713;BMP280;9485;49.386;8.674;2023-06-19T05:14:00;100121.28;;;23.99
18713;BMP280;9485;49.386;8.674;2023-06-19T05:19:21;100124.41;;;23.93
18713;BMP280;9485;49.386;8.674;2023-06-19T05:24:44;100111.25;;;24.00
18713;BMP280;9485;49.386;8.674;2023-06-19T05:30:07;100130.06;;;24.01
18713;BMP280;9485;49.386;8.674;2023-06-19T05:35:28;100133.31;;;24.05
18713;BMP280;9485;49.386;8.674;2023-06-19T05:40:53;100130.22;;;24.20
18713;BMP280;9485;49.386;8.674;2023-06-19T05:46:14;100137.56;;;24.30
18713;BMP280;9485;49.386;8.674;2023-06-19T05:51:35;100146.34;;;24.49
18713;BMP280;9485;49.386;8.674;2023-06-19T05:56:56;100150.09;;;24.68
18713;BMP280;9485;49.386;8.674;2023-06-19T06:02:18;100151.06;;;24.80
18713;BMP280;9485;49.386;8.674;2023-06-19T06:07:39;100154.19;;;25.01
18713;BMP280;9485;49.386;8.674;2023-06-19T06:13:01;100139.97;;;25.22
18713;BMP280;9485;49.386;8.674;2023-06-19T06:18:22;100143.06;;;25.43
18713;BMP280;9485;49.386;8.674;2023-06-19T06:23:42;100144.13;;;25.66
18713;BMP280;9485;49.386;8.674;2023-06-19T06:29:05;100149.34;;;26.05
18713;BMP280;9485;49.386;8.674;2023-06-19T06:34:26;100152.53;;;26.38
18713;BMP280;9485;49.386;8.674;2023-06-19T06:39:47;100142.94;;;26.75
18713;BMP280;9485;49.386;8.674;2023-06-19T06:45:10;100158.44;;;26.89
18713;BMP280;9485;49.386;8.674;2023-06-19T06:50:31;100156.50;;;26.82
18713;BMP280;9485;49.386;8.674;2023-06-19T06:55:51;100153.28;;;26.87
18713;BMP280;9485;49.386;8.674;2023-06-19T07:01:14;100164.78;;;27.06
18713;BMP280;9485;49.386;8.674;2023-06-19T07:06:34;100170.28;;;27.12
18713;BMP280;9485;49.386;8.674;2023-06-19T07:11:56;100165.28;;;27.54
18713;BMP280;9485;49.386;8.674;2023-06-19T07:17:18;100180.06;;;28.00
18713;BMP280;9485;49.386;8.674;2023-06-19T07:22:39;100177.44;;;28.04
18713;BMP280;9485;49.386;8.674;2023-06-19T07:28:01;100188.72;;;28.96
18713;BMP280;9485;49.386;8.674;2023-06-19T07:33:25;100199.16;;;28.67
18713;BMP280;9485;49.386;8.674;2023-06-19T07:38:46;100195.44;;;28.44
18713;BMP280;9485;49.386;8.674;2023-06-19T07:44:07;100198.81;;;28.40
18713;BMP280;9485;49.386;8.674;2023-06-19T07:49:29;100204.25;;;28.34
18713;BMP280;9485;49.386;8.674;2023-06-19T07:54:53;100211.66;;;28.70
18713;BMP280;9485;49.386;8.674;2023-06-19T08:00:14;100227.06;;;29.27
18713;BMP280;9485;49.386;8.674;2023-06-19T08:05:37;100231.75;;;28.66
18713;BMP280;9485;49.386;8.674;2023-06-19T08:10:58;100236.94;;;28.14
18713;BMP280;9485;49.386;8.674;2023-06-19T08:16:20;100232.59;;;28.04
18713;BMP280;9485;49.386;8.674;2023-06-19T08:21:41;100234.75;;;28.24
18713;BMP280;9485;49.386;8.674;2023-06-19T08:27:03;100231.59;;;28.11
18713;BMP280;9485;49.386;8.674;2023-06-19T08:32:23;100231.13;;;28.14
18713;BMP280;9485;49.386;8.674;2023-06-19T08:37:46;100231.09;;;29.34
18713;BMP280;9485;49.386;8.674;2023-06-19T08:43:07;100230.25;;;29.43
18713;BMP280;9485;49.386;8.674;2023-06-19T08:48:28;100241.75;;;29.64
18713;BMP280;9485;49.386;8.674;2023-06-19T08:53:59;100234.53;;;29.65
18713;BMP280;9485;49.386;8.674;2023-06-19T08:59:20;100245.72;;;31.80
18713;BMP280;9485;49.386;8.674;2023-06-19T09:04:41;100246.56;;;31.96
18713;BMP280;9485;49.386;8.674;2023-06-19T09:10:15;100258.72;;;32.46
18713;BMP280;9485;49.386;8.674;2023-06-19T09:15:38;100260.03;;;32.72
18713;BMP280;9485;49.386;8.674;2023-06-19T09:21:00;100261.25;;;32.96
18713;BMP280;9485;49.386;8.674;2023-06-19T09:26:23;100246.38;;;32.77
18713;BMP280;9485;49.386;8.674;2023-06-19T09:31:44;100239.78;;;32.76
18713;BMP280;9485;49.386;8.674;2023-06-19T09:37:06;100229.50;;;33.19
18713;BMP280;9485;49.386;8.674;2023-06-19T09:42:32;100239.97;;;33.86
18713;BMP280;9485;49.386;8.674;2023-06-19T09:47:53;100240.56;;;34.15
18713;BMP280;9485;49.386;8.674;2023-06-19T09:53:15;100225.34;;;34.88
18713;BMP280;9485;49.386;8.674;2023-06-19T09:58:39;100237.81;;;35.23
18713;BMP280;9485;49.386;8.674;2023-06-19T10:04:07;100234.06;;;34.86
18713;BMP280;9485;49.386;8.674;2023-06-19T10:09:33;100220.41;;;34.93
18713;BMP280;9485;49.386;8.674;2023-06-19T10:14:56;100218.72;;;35.05
18713;BMP280;9485;49.386;8.674;2023-06-19T10:20:24;100222.66;;;35.12
18713;BMP280;9485;49.386;8.674;2023-06-19T10:25:54;100222.16;;;35.00
18713;BMP280;9485;49.386;8.674;2023-06-19T10:31:17;100219.81;;;34.96
18713;BMP280;9485;49.386;8.674;2023-06-19T10:36:39;100223.75;;;35.39
18713;BMP280;9485;49.386;8.674;2023-06-19T10:42:00;100212.13;;;35.61
18713;BMP280;9485;49.386;8.674;2023-06-19T10:47:23;100208.38;;;35.41
18713;BMP280;9485;49.386;8.674;2023-06-19T10:52:45;100196.28;;;35.70
18713;BMP280;9485;49.386;8.674;2023-06-19T10:58:08;100192.16;;;36.17
18713;BMP280;9485;49.386;8.674;2023-06-19T11:03:32;100188.81;;;36.27
18713;BMP280;9485;49.386;8.674;2023-06-19T11:08:55;100183.25;;;36.79
18713;BMP280;9485;49.386;8.674;2023-06-19T11:14:17;100186.25;;;36.81
18713;BMP280;9485;49.386;8.674;2023-06-19T11:19:40;100168.16;;;36.68
18713;BMP280;9485;49.386;8.674;2023-06-19T11:25:04;100153.19;;;36.60
18713;BMP280;9485;49.386;8.674;2023-06-19T11:30:31;100142.09;;;36.37
18713;BMP280;9485;49.386;8.674;2023-06-19T11:35:59;100144.09;;;36.52
18713;BMP280;9485;49.386;8.674;2023-06-19T11:41:30;100137.94;;;36.65
18713;BMP280;9485;49.386;8.674;2023-06-19T11:47:19;100134.72;;;36.57
18713;BMP280;9485;49.386;8.674;2023-06-19T11:52:43;100138.84;;;36.93
18713;BMP280;9485;49.386;8.674;2023-06-19T11:58:06;100139.69;;;37.21
18713;BMP280;9485;49.386;8.674;2023-06-19T12:03:28;100136.25;;;37.54
18713;BMP280;9485;49.386;8.674;2023-06-19T12:08:52;100137.09;;;37.83
18713;BMP280;9485;49.386;8.674;2023-06-19T12:14:14;100139.34;;;37.34
18713;BMP280;9485;49.386;8.674;2023-06-19T12:19:36;100128.78;;;36.55
18713;BMP280;9485;49.386;8.674;2023-06-19T12:24:59;100121.50;;;35.94
18713;BMP280;9485;49.386;8.674;2023-06-19T12:30:22;100128.31;;;35.58
18713;BMP280;9485;49.386;8.674;2023-06-19T12:35:45;100128.91;;;35.35
18713;BMP280;9485;49.386;8.674;2023-06-19T12:41:08;100114.00;;;35.10
18713;BMP280;9485;49.386;8.674;2023-06-19T12:46:29;100122.19;;;35.32
18713;BMP280;9485;49.386;8.674;2023-06-19T12:51:50;100110.69;;;35.99
18713;BMP280;9485;49.386;8.674;2023-06-19T12:57:14;100108.72;;;36.05
18713;BMP280;9485;49.386;8.674;2023-06-19T13:02:36;100100.53;;;36.46
18713;BMP280;9485;49.386;8.674;2023-06-19T13:07:58;100102.94;;;36.52
18713;BMP280;9485;49.386;8.674;2023-06-19T13:13:21;100112.84;;;36.85
18713;BMP280;9485;49.386;8.674;2023-06-19T13:18:41;100097.44;;;36.87
18713;BMP280;9485;49.386;8.674;2023-06-19T13:24:03;100089.50;;;37.17
18713;BMP280;9485;49.386;8.674;2023-06-19T13:29:24;100090.59;;;37.80
18713;BMP280;9485;49.386;8.674;2023-06-19T13:34:45;100096.88;;;37.68
18713;BMP280;9485;49.386;8.674;2023-06-19T13:40:08;100090.84;;;37.62
18713;BMP280;9485;49.386;8.674;2023-06-19T13:45:30;100084.41;;;37.70
18713;BMP280;9485;49.386;8.674;2023-06-19T13:50:51;100071.00;;;37.92
18713;BMP280;9485;49.386;8.674;2023-06-19T13:56:12;100066.09;;;38.30
18713;BMP280;9485;49.386;8.674;2023-06-19T14:01:34;100059.88;;;38.79
18713;BMP280;9485;49.386;8.674;2023-06-19T14:06:54;100048.50;;;38.65
18713;BMP280;9485;49.386;8.674;2023-06-19T14:12:15;100027.59;;;37.95
18713;BMP280;9485;49.386;8.674;2023-06-19T14:17:37;100032.31;;;36.75
18713;BMP280;9485;49.386;8.674;2023-06-19T14:23:00;100024.78;;;36.45
18713;BMP280;9485;49.386;8.674;2023-06-19T14:28:21;100014.22;;;36.14
18713;BMP280;9485;49.386;8.674;2023-06-19T14:33:43;100010.53;;;35.93
18713;BMP280;9485;49.386;8.674;2023-06-19T14:39:04;100010.81;;;35.79
18713;BMP280;9485;49.386;8.674;2023-06-19T14:44:25;100021.22;;;35.82
18713;BMP280;9485;49.386;8.674;2023-06-19T14:49:47;100008.97;;;35.90
18713;BMP280;9485;49.386;8.674;2023-06-19T14:55:10;99987.03;;;35.93
18713;BMP280;9485;49.386;8.674;2023-06-19T15:00:32;99990.56;;;35.66
18713;BMP280;9485;49.386;8.674;2023-06-19T15:05:55;100002.03;;;35.17
18713;BMP280;9485;49.386;8.674;2023-06-19T15:11:16;99999.63;;;34.53
18713;BMP280;9485;49.386;8.674;2023-06-19T15:16:37;99996.06;;;34.03
18713;BMP280;9485;49.386;8.674;2023-06-19T15:21:59;100002.19;;;33.57
18713;BMP280;9485;49.386;8.674;2023-06-19T15:27:20;99993.91;;;33.18
18713;BMP280;9485;49.386;8.674;2023-06-19T15:32:41;99991.50;;;32.97
18713;BMP280;9485;49.386;8.674;2023-06-19T15:38:03;99997.84;;;32.92
18713;BMP280;9485;49.386;8.674;2023-06-19T15:43:25;99999.94;;;32.74
18713;BMP280;9485;49.386;8.674;2023-06-19T15:48:48;99982.47;;;32.45
18713;BMP280;9485;49.386;8.674;2023-06-19T15:54:11;99964.69;;;32.39
18713;BMP280;9485;49.386;8.674;2023-06-19T15:59:32;99966.47;;;32.46
18713;BMP280;9485;49.386;8.674;2023-06-19T16:04:53;99954.19;;;32.50
18713;BMP280;9485;49.386;8.674;2023-06-19T16:10:15;99949.19;;;32.52
18713;BMP280;9485;49.386;8.674;2023-06-19T16:15:37;99953.34;;;32.47
18713;BMP280;9485;49.386;8.674;2023-06-19T16:20:58;99955.81;;;32.53
18713;BMP280;9485;49.386;8.674;2023-06-19T16:26:20;99965.81;;;32.63
18713;BMP280;9485;49.386;8.674;2023-06-19T16:31:41;99964.19;;;32.76
18713;BMP280;9485;49.386;8.674;2023-06-19T16:37:02;99954.31;;;32.67
18713;BMP280;9485;49.386;8.674;2023-06-19T16:42:25;99950.81;;;32.55
18713;BMP280;9485;49.386;8.674;2023-06-19T16:47:46;99952.03;;;32.35
18713;BMP280;9485;49.386;8.674;2023-06-19T16:53:07;99959.50;;;32.38
18713;BMP280;9485;49.386;8.674;2023-06-19T16:58:29;99944.31;;;32.41
18713;BMP280;9485;49.386;8.674;2023-06-19T17:03:49;99956.84;;;32.44
18713;BMP280;9485;49.386;8.674;2023-06-19T17:09:10;99947.72;;;32.36
18713;BMP280;9485;49.386;8.674;2023-06-19T17:14:32;99957.03;;;32.32
18713;BMP280;9485;49.386;8.674;2023-06-19T17:19:53;99950.66;;;32.20
18713;BMP280;9485;49.386;8.674;2023-06-19T17:25:14;99952.47;;;31.99
18713;BMP280;9485;49.386;8.674;2023-06-19T17:30:36;99944.91;;;31.78
18713;BMP280;9485;49.386;8.674;2023-06-19T17:36:00;99944.13;;;31.62
18713;BMP280;9485;49.386;8.674;2023-06-19T17:41:22;99949.47;;;31.52
18713;BMP280;9485;49.386;8.674;2023-06-19T17:46:45;99949.88;;;31.47
18713;BMP280;9485;49.386;8.674;2023-06-19T17:52:06;99944.25;;;31.51
18713;BMP280;9485;49.386;8.674;2023-06-19T17:57:27;99952.88;;;31.33
18713;BMP280;9485;49.386;8.674;2023-06-19T18:02:49;99953.25;;;31.13
18713;BMP280;9485;49.386;8.674;2023-06-19T18:08:10;99952.38;;;30.97
18713;BMP280;9485;49.386;8.674;2023-06-19T18:13:32;99951.53;;;30.81
18713;BMP280;9485;49.386;8.674;2023-06-19T18:18:54;99950.16;;;30.68
18713;BMP280;9485;49.386;8.674;2023-06-19T18:24:15;99943.66;;;30.56
18713;BMP280;9485;49.386;8.674;2023-06-19T18:29:36;99940.50;;;30.39
18713;BMP280;9485;49.386;8.674;2023-06-19T18:34:58;99946.22;;;30.24
18713;BMP280;9485;49.386;8.674;2023-06-19T18:40:19;99950.19;;;30.17
18713;BMP280;9485;49.386;8.674;2023-06-19T18:45:40;99950.53;;;30.09
18713;BMP280;9485;49.386;8.674;2023-06-19T18:51:02;99933.66;;;29.94
18713;BMP280;9485;49.386;8.674;2023-06-19T18:56:23;99946.41;;;29.76
18713;BMP280;9485;49.386;8.674;2023-06-19T19:01:43;99943.34;;;29.61
18713;BMP280;9485;49.386;8.674;2023-06-19T19:07:06;99941.75;;;29.46
18713;BMP280;9485;49.386;8.674;2023-06-19T19:12:27;99936.00;;;29.23
18713;BMP280;9485;49.386;8.674;2023-06-19T19:17:48;99943.16;;;29.09
18713;BMP280;9485;49.386;8.674;2023-06-19T19:23:11;99950.28;;;28.94
18713;BMP280;9485;49.386;8.674;2023-06-19T19:28:32;99939.94;;;28.80
18713;BMP280;9485;49.386;8.674;2023-06-19T19:33:53;99947.03;;;28.66
18713;BMP280;9485;49.386;8.674;2023-06-19T19:39:16;99951.97;;;28.52
18713;BMP280;9485;49.386;8.674;2023-06-19T19:44:36;99962.31;;;28.43
18713;BMP280;9485;49.386;8.674;2023-06-19T19:49:57;99966.88;;;28.35
18713;BMP280;9485;49.386;8.674;2023-06-19T19:55:19;99976.97;;;28.22
18713;BMP280;9485;49.386;8.674;2023-06-19T20:00:39;99977.31;;;28.06
18713;BMP280;9485;49.386;8.674;2023-06-19T20:06:04;99978.41;;;27.89
18713;BMP280;9485;49.386;8.674;2023-06-19T20:11:26;99975.84;;;27.72
18713;BMP280;9485;49.386;8.674;2023-06-19T20:16:47;99977.66;;;27.56
18713;BMP280;9485;49.386;8.674;2023-06-19T20:22:08;99973.72;;;27.40
18713;BMP280;9485;49.386;8.674;2023-06-19T20:27:30;99974.00;;;27.24
18713;BMP280;9485;49.386;8.674;2023-06-19T20:32:51;99970.00;;;27.08
18713;BMP280;9485;49.386;8.674;2023-06-19T20:38:12;99968.28;;;26.93
18713;BMP280;9485;49.386;8.674;2023-06-19T20:43:34;99972.34;;;26.79
18713;BMP280;9485;49.386;8.674;2023-06-19T20:48:55;99972.75;;;26.64
18713;BMP280;9485;49.386;8.674;2023-06-19T20:54:16;99970.50;;;26.53
18713;BMP280;9485;49.386;8.674;2023-06-19T20:59:39;99961.88;;;26.44
18713;BMP280;9485;49.386;8.674;2023-06-19T21:05:00;99966.31;;;26.35
18713;BMP280;9485;49.386;8.674;2023-06-19T21:10:21;99960.22;;;26.31
18713;BMP280;9485;49.386;8.674;2023-06-19T21:15:44;99961.00;;;26.32
18713;BMP280;9485;49.386;8.674;2023-06-19T21:21:05;99955.53;;;26.26
18713;BMP280;9485;49.386;8.674;2023-06-19T21:26:25;99959.38;;;26.19
18713;BMP280;9485;49.386;8.674;2023-06-19T21:31:47;99956.22;;;26.15
18713;BMP280;9485;49.386;8.674;2023-06-19T21:37:08;99942.97;;;26.12
18713;BMP280;9485;49.386;8.674;2023-06-19T21:42:28;99950.00;;;26.09
18713;BMP280;9485;49.386;8.674;2023-06-19T21:47:51;99943.00;;;26.03
18713;BMP280;9485;49.386;8.674;2023-06-19T21:53:12;99926.44;;;25.94
18713;BMP280;9485;49.386;8.674;2023-06-19T21:58:32;99910.50;;;25.83
18713;BMP280;9485;49.386;8.674;2023-06-19T22:03:54;99912.34;;;25.79
18713;BMP280;9485;49.386;8.674;2023-06-19T22:09:15;99913.59;;;25.76
18713;BMP280;9485;49.386;8.674;2023-06-19T22:14:35;99917.66;;;25.82
18713;BMP280;9485;49.386;8.674;2023-06-19T22:20:01;99909.13;;;25.84
18713;BMP280;9485;49.386;8.674;2023-06-19T22:25:22;99904.22;;;25.96
18713;BMP280;9485;49.386;8.674;2023-06-19T22:30:43;99896.44;;;25.99
18713;BMP280;9485;49.386;8.674;2023-06-19T22:36:06;99898.41;;;26.06
18713;BMP280;9485;49.386;8.674;2023-06-19T22:41:29;99888.94;;;26.05
18713;BMP280;9485;49.386;8.674;2023-06-19T22:46:50;99896.69;;;26.12
18713;BMP280;9485;49.386;8.674;2023-06-19T22:52:12;99886.78;;;26.15
18713;BMP280;9485;49.386;8.674;2023-06-19T22:57:33;99881.09;;;26.17
18713;BMP280;9485;49.386;8.674;2023-06-19T23:02:54;99897.56;;;26.15
18713;BMP280;9485;49.386;8.674;2023-06-19T23:08:16;99886.94;;;26.08
18713;BMP280;9485;49.386;8.674;2023-06-19T23:13:38;99896.41;;;26.08
18713;BMP280;9485;49.386;8.674;2023-06-19T23:18:59;99906.59;;;26.09
18713;BMP280;9485;49.386;8.674;2023-06-19T23:24:21;99900.84;;;26.00
18713;BMP280;9485;49.386;8.674;2023-06-19T23:29:42;99899.03;;;25.95
18713;BMP280;9485;49.386;8.674;2023-06-19T23:35:03;99910.81;;;25.87
18713;BMP280;9485;49.386;8.674;2023-06-19T23:40:25;99928.19;;;25.78
18713;BMP280;9485;49.386;8.674;2023-06-19T23:45:46;99938.09;;;25.75
18713;BMP280;9485;49.386;8.674;2023-06-19T23:51:07;99957.41;;;25.73
18713;BMP280;9485;49.386;8.674;2023-06-19T23:56:29;99953.50;;;25.49
